sensor_id;sensor_type;location;lat;lon;timestamp;temperature;humidity
42755;DHT22;28407;51.830;5.684;2022-11-14T00:01:16;9.00;79.30
42755;DHT22;28407;51.830;5.684;2022-11-14T00:03:35;8.90;79.30
42755;DHT22;28407;51.830;5.684;2022-11-14T00:05:54;8.90;79.50
42755;DHT22;28407;51.830;5.684;2022-11-14T00:08:21;8.90;79.50
42755;DHT22;28407;51.830;5.684;2022-11-14T00:10:41;8.80;79.50
42755;DHT22;28407;51.830;5.684;2022-11-14T00:13:00;8.80;79.50
42755;DHT22;28407;51.830;5.684;2022-11-14T00:15:19;8.80;79.40
42755;DHT22;28407;51.830;5.684;2022-11-14T00:17:38;8.80;79.40
42755;DHT22;28407;51.830;5.684;2022-11-14T00:19:57;8.90;80.00
42755;DHT22;28407;51.830;5.684;2022-11-14T00:22:16;8.80;79.40
42755;DHT22;28407;51.830;5.684;2022-11-14T00:24:35;8.80;79.40
42755;DHT22;28407;51.830;5.684;2022-11-14T00:26:54;8.80;79.40
42755;DHT22;28407;51.830;5.684;2022-11-14T00:29:14;8.70;79.30
42755;DHT22;28407;51.830;5.684;2022-11-14T00:31:33;8.80;79.30
42755;DHT22;28407;51.830;5.684;2022-11-14T00:33:52;8.70;79.30
42755;DHT22;28407;51.830;5.684;2022-11-14T00:36:11;8.80;79.40
42755;DHT22;28407;51.830;5.684;2022-11-14T00:38:30;8.70;79.20
42755;DHT22;28407;51.830;5.684;2022-11-14T00:40:49;8.70;79.20
42755;DHT22;28407;51.830;5.684;2022-11-14T00:43:08;8.70;79.30
42755;DHT22;28407;51.830;5.684;2022-11-14T00:45:27;8.70;79.20
42755;DHT22;28407;51.830;5.684;2022-11-14T00:47:46;8.70;79.20
42755;DHT22;28407;51.830;5.684;2022-11-14T00:50:06;8.70;79.10
42755;DHT22;28407;51.830;5.684;2022-11-14T00:52:25;8.80;79.10
42755;DHT22;28407;51.830;5.684;2022-11-14T00:54:44;8.80;79.10
42755;DHT22;28407;51.830;5.684;2022-11-14T00:57:03;8.80;79.10
42755;DHT22;28407;51.830;5.684;2022-11-14T00:59:22;8.70;79.00
42755;DHT22;28407;51.830;5.684;2022-11-14T01:01:41;8.80;79.00
42755;DHT22;28407;51.830;5.684;2022-11-14T01:04:00;8.80;79.00
42755;DHT22;28407;51.830;5.684;2022-11-14T01:06:19;8.80;78.90
42755;DHT22;28407;51.830;5.684;2022-11-14T01:08:38;8.70;78.90
42755;DHT22;28407;51.830;5.684;2022-11-14T01:10:57;8.70;78.90
42755;DHT22;28407;51.830;5.684;2022-11-14T01:13:18;8.70;78.90
42755;DHT22;28407;51.830;5.684;2022-11-14T01:15:43;8.70;78.80
42755;DHT22;28407;51.830;5.684;2022-11-14T01:18:02;8.70;78.80
42755;DHT22;28407;51.830;5.684;2022-11-14T01:20:21;8.60;78.90
42755;DHT22;28407;51.830;5.684;2022-11-14T01:22:41;8.60;78.90
42755;DHT22;28407;51.830;5.684;2022-11-14T01:25:00;8.60;79.00
42755;DHT22;28407;51.830;5.684;2022-11-14T01:27:20;8.50;79.00
42755;DHT22;28407;51.830;5.684;2022-11-14T01:29:39;8.50;79.00
42755;DHT22;28407;51.830;5.684;2022-11-14T01:31:58;8.40;79.00
42755;DHT22;28407;51.830;5.684;2022-11-14T01:34:17;8.40;79.10
42755;DHT22;28407;51.830;5.684;2022-11-14T01:36:36;8.40;79.10
42755;DHT22;28407;51.830;5.684;2022-11-14T01:38:56;8.30;79.20
42755;DHT22;28407;51.830;5.684;2022-11-14T01:41:15;8.30;79.20
42755;DHT22;28407;51.830;5.684;2022-11-14T01:43:37;8.20;79.20
42755;DHT22;28407;51.830;5.684;2022-11-14T01:48:39;8.20;79.30
42755;DHT22;28407;51.830;5.684;2022-11-14T01:51:04;8.10;79.30
42755;DHT22;28407;51.830;5.684;2022-11-14T01:53:27;8.10;79.30
42755;DHT22;28407;51.830;5.684;2022-11-14T01:55:46;8.10;79.40
42755;DHT22;28407;51.830;5.684;2022-11-14T01:58:05;8.10;79.30
42755;DHT22;28407;51.830;5.684;2022-11-14T02:00:25;8.10;79.30
42755;DHT22;28407;51.830;5.684;2022-11-14T02:02:44;8.10;79.30
42755;DHT22;28407;51.830;5.684;2022-11-14T02:05:10;8.10;79.20
42755;DHT22;28407;51.830;5.684;2022-11-14T02:07:34;8.10;79.20
42755;DHT22;28407;51.830;5.684;2022-11-14T02:09:54;8.10;79.30
42755;DHT22;28407;51.830;5.684;2022-11-14T02:12:15;8.00;79.30
42755;DHT22;28407;51.830;5.684;2022-11-14T02:14:35;8.00;79.30
42755;DHT22;28407;51.830;5.684;2022-11-14T02:16:55;8.00;79.30
42755;DHT22;28407;51.830;5.684;2022-11-14T02:19:14;8.00;79.30
42755;DHT22;28407;51.830;5.684;2022-11-14T02:21:35;8.00;79.30
42755;DHT22;28407;51.830;5.684;2022-11-14T02:23:54;8.00;79.30
42755;DHT22;28407;51.830;5.684;2022-11-14T02:26:19;8.00;79.20
42755;DHT22;28407;51.830;5.684;2022-11-14T02:28:39;8.00;79.20
42755;DHT22;28407;51.830;5.684;2022-11-14T02:30:58;8.00;79.20
42755;DHT22;28407;51.830;5.684;2022-11-14T02:33:17;8.00;79.10
42755;DHT22;28407;51.830;5.684;2022-11-14T02:35:36;8.00;79.20
42755;DHT22;28407;51.830;5.684;2022-11-14T02:37:55;8.00;79.10
42755;DHT22;28407;51.830;5.684;2022-11-14T02:40:15;8.00;79.10
42755;DHT22;28407;51.830;5.684;2022-11-14T02:42:34;8.00;79.20
42755;DHT22;28407;51.830;5.684;2022-11-14T02:44:54;8.00;79.20
42755;DHT22;28407;51.830;5.684;2022-11-14T02:47:13;8.00;79.20
42755;DHT22;28407;51.830;5.684;2022-11-14T02:49:32;7.90;79.20
42755;DHT22;28407;51.830;5.684;2022-11-14T02:51:51;8.00;79.20
42755;DHT22;28407;51.830;5.684;2022-11-14T02:54:10;8.00;79.20
42755;DHT22;28407;51.830;5.684;2022-11-14T02:56:29;7.90;79.10
42755;DHT22;28407;51.830;5.684;2022-11-14T02:58:48;7.90;79.10
42755;DHT22;28407;51.830;5.684;2022-11-14T03:01:07;7.90;79.10
42755;DHT22;28407;51.830;5.684;2022-11-14T03:03:26;7.90;79.20
42755;DHT22;28407;51.830;5.684;2022-11-14T03:05:45;7.90;79.20
42755;DHT22;28407;51.830;5.684;2022-11-14T03:08:04;7.80;79.20
42755;DHT22;28407;51.830;5.684;2022-11-14T03:10:23;7.80;79.20
42755;DHT22;28407;51.830;5.684;2022-11-14T03:12:42;7.80;79.20
42755;DHT22;28407;51.830;5.684;2022-11-14T03:15:01;7.80;79.20
42755;DHT22;28407;51.830;5.684;2022-11-14T03:17:21;7.80;79.20
42755;DHT22;28407;51.830;5.684;2022-11-14T03:19:42;7.80;79.20
42755;DHT22;28407;51.830;5.684;2022-11-14T03:22:01;7.80;79.20
42755;DHT22;28407;51.830;5.684;2022-11-14T03:24:20;7.80;79.10
42755;DHT22;28407;51.830;5.684;2022-11-14T03:26:39;7.80;79.10
42755;DHT22;28407;51.830;5.684;2022-11-14T03:28:58;7.80;79.20
42755;DHT22;28407;51.830;5.684;2022-11-14T03:31:17;7.80;79.20
42755;DHT22;28407;51.830;5.684;2022-11-14T03:33:36;7.80;79.20
42755;DHT22;28407;51.830;5.684;2022-11-14T03:35:55;7.80;79.20
42755;DHT22;28407;51.830;5.684;2022-11-14T03:38:14;7.70;79.10
42755;DHT22;28407;51.830;5.684;2022-11-14T03:40:33;7.70;79.30
42755;DHT22;28407;51.830;5.684;2022-11-14T03:42:52;7.70;79.30
42755;DHT22;28407;51.830;5.684;2022-11-14T03:45:11;7.70;79.30
42755;DHT22;28407;51.830;5.684;2022-11-14T03:47:30;7.70;79.30
42755;DHT22;28407;51.830;5.684;2022-11-14T03:49:49;7.60;79.30
42755;DHT22;28407;51.830;5.684;2022-11-14T03:52:08;7.60;79.30
42755;DHT22;28407;51.830;5.684;2022-11-14T03:54:27;7.60;79.40
42755;DHT22;28407;51.830;5.684;2022-11-14T03:56:46;7.60;79.40
42755;DHT22;28407;51.830;5.684;2022-11-14T03:59:05;7.50;79.30
42755;DHT22;28407;51.830;5.684;2022-11-14T04:01:24;7.50;79.40
42755;DHT22;28407;51.830;5.684;2022-11-14T04:03:43;7.50;79.40
42755;DHT22;28407;51.830;5.684;2022-11-14T04:06:03;7.50;79.40
42755;DHT22;28407;51.830;5.684;2022-11-14T04:08:22;7.50;79.50
42755;DHT22;28407;51.830;5.684;2022-11-14T04:10:41;7.40;79.50
42755;DHT22;28407;51.830;5.684;2022-11-14T04:13:00;7.40;79.50
42755;DHT22;28407;51.830;5.684;2022-11-14T04:15:19;7.50;79.50
42755;DHT22;28407;51.830;5.684;2022-11-14T04:17:39;7.50;79.40
42755;DHT22;28407;51.830;5.684;2022-11-14T04:19:58;7.50;79.40
42755;DHT22;28407;51.830;5.684;2022-11-14T04:22:17;7.50;79.30
42755;DHT22;28407;51.830;5.684;2022-11-14T04:24:36;7.50;79.30
42755;DHT22;28407;51.830;5.684;2022-11-14T04:26:55;7.50;79.30
42755;DHT22;28407;51.830;5.684;2022-11-14T04:29:14;7.40;79.30
42755;DHT22;28407;51.830;5.684;2022-11-14T04:31:33;7.50;79.40
42755;DHT22;28407;51.830;5.684;2022-11-14T04:33:52;7.40;79.30
42755;DHT22;28407;51.830;5.684;2022-11-14T04:36:11;7.40;79.30
42755;DHT22;28407;51.830;5.684;2022-11-14T04:38:30;7.40;79.30
42755;DHT22;28407;51.830;5.684;2022-11-14T04:40:50;7.40;79.30
42755;DHT22;28407;51.830;5.684;2022-11-14T04:43:10;7.40;79.30
42755;DHT22;28407;51.830;5.684;2022-11-14T04:45:29;7.40;79.30
42755;DHT22;28407;51.830;5.684;2022-11-14T04:47:48;7.40;79.30
42755;DHT22;28407;51.830;5.684;2022-11-14T04:50:08;7.30;79.30
42755;DHT22;28407;51.830;5.684;2022-11-14T04:52:27;7.30;79.30
42755;DHT22;28407;51.830;5.684;2022-11-14T04:54:46;7.30;79.30
42755;DHT22;28407;51.830;5.684;2022-11-14T04:57:05;7.30;79.30
42755;DHT22;28407;51.830;5.684;2022-11-14T04:59:24;7.30;79.40
42755;DHT22;28407;51.830;5.684;2022-11-14T05:01:43;7.30;79.40
42755;DHT22;28407;51.830;5.684;2022-11-14T05:04:02;7.20;79.40
42755;DHT22;28407;51.830;5.684;2022-11-14T05:06:21;7.20;79.40
42755;DHT22;28407;51.830;5.684;2022-11-14T05:08:40;7.20;79.40
42755;DHT22;28407;51.830;5.684;2022-11-14T05:10:59;7.20;79.40
42755;DHT22;28407;51.830;5.684;2022-11-14T05:13:18;7.20;79.40
42755;DHT22;28407;51.830;5.684;2022-11-14T05:15:37;7.20;79.50
42755;DHT22;28407;51.830;5.684;2022-11-14T05:17:56;7.20;79.60
42755;DHT22;28407;51.830;5.684;2022-11-14T05:20:16;7.10;79.60
42755;DHT22;28407;51.830;5.684;2022-11-14T05:22:35;7.10;79.50
42755;DHT22;28407;51.830;5.684;2022-11-14T05:24:54;7.10;79.50
42755;DHT22;28407;51.830;5.684;2022-11-14T05:27:13;7.10;79.50
42755;DHT22;28407;51.830;5.684;2022-11-14T05:29:32;7.10;79.60
42755;DHT22;28407;51.830;5.684;2022-11-14T05:31:52;7.10;79.60
42755;DHT22;28407;51.830;5.684;2022-11-14T05:34:11;7.10;79.60
42755;DHT22;28407;51.830;5.684;2022-11-14T05:36:30;7.10;79.60
42755;DHT22;28407;51.830;5.684;2022-11-14T05:38:49;7.10;79.60
42755;DHT22;28407;51.830;5.684;2022-11-14T05:41:09;7.10;79.60
42755;DHT22;28407;51.830;5.684;2022-11-14T05:43:29;7.10;79.60
42755;DHT22;28407;51.830;5.684;2022-11-14T05:45:48;7.10;79.50
42755;DHT22;28407;51.830;5.684;2022-11-14T05:48:07;7.00;79.50
42755;DHT22;28407;51.830;5.684;2022-11-14T05:50:26;7.00;79.50
42755;DHT22;28407;51.830;5.684;2022-11-14T05:52:45;7.00;79.50
42755;DHT22;28407;51.830;5.684;2022-11-14T05:55:04;7.00;79.50
42755;DHT22;28407;51.830;5.684;2022-11-14T05:57:24;7.00;79.50
42755;DHT22;28407;51.830;5.684;2022-11-14T05:59:43;7.00;79.50
42755;DHT22;28407;51.830;5.684;2022-11-14T06:02:02;7.00;79.40
42755;DHT22;28407;51.830;5.684;2022-11-14T06:04:21;7.00;79.50
42755;DHT22;28407;51.830;5.684;2022-11-14T06:06:40;7.00;79.40
42755;DHT22;28407;51.830;5.684;2022-11-14T06:08:59;7.00;79.40
42755;DHT22;28407;51.830;5.684;2022-11-14T06:11:19;7.10;79.40
42755;DHT22;28407;51.830;5.684;2022-11-14T06:13:39;7.00;79.30
42755;DHT22;28407;51.830;5.684;2022-11-14T06:16:03;7.00;79.40
42755;DHT22;28407;51.830;5.684;2022-11-14T06:18:22;7.00;79.30
42755;DHT22;28407;51.830;5.684;2022-11-14T06:20:41;7.00;79.40
42755;DHT22;28407;51.830;5.684;2022-11-14T06:23:00;7.00;79.40
42755;DHT22;28407;51.830;5.684;2022-11-14T06:25:20;7.00;79.40
42755;DHT22;28407;51.830;5.684;2022-11-14T06:27:39;7.00;79.30
42755;DHT22;28407;51.830;5.684;2022-11-14T06:29:58;6.90;79.30
42755;DHT22;28407;51.830;5.684;2022-11-14T06:32:17;7.00;79.40
42755;DHT22;28407;51.830;5.684;2022-11-14T06:34:36;7.00;79.30
42755;DHT22;28407;51.830;5.684;2022-11-14T06:36:55;6.90;79.20
42755;DHT22;28407;51.830;5.684;2022-11-14T06:39:14;6.90;79.20
42755;DHT22;28407;51.830;5.684;2022-11-14T06:41:33;6.90;79.20
42755;DHT22;28407;51.830;5.684;2022-11-14T06:43:52;6.90;79.20
42755;DHT22;28407;51.830;5.684;2022-11-14T06:46:15;6.90;79.20
42755;DHT22;28407;51.830;5.684;2022-11-14T06:48:34;6.90;79.10
42755;DHT22;28407;51.830;5.684;2022-11-14T06:50:55;6.90;79.20
42755;DHT22;28407;51.830;5.684;2022-11-14T06:53:14;6.90;79.10
42755;DHT22;28407;51.830;5.684;2022-11-14T06:55:33;6.90;79.10
42755;DHT22;28407;51.830;5.684;2022-11-14T06:57:53;6.90;79.20
42755;DHT22;28407;51.830;5.684;2022-11-14T07:00:13;6.90;79.10
42755;DHT22;28407;51.830;5.684;2022-11-14T07:02:32;6.90;79.10
42755;DHT22;28407;51.830;5.684;2022-11-14T07:04:51;6.90;79.20
42755;DHT22;28407;51.830;5.684;2022-11-14T07:07:10;6.90;79.20
42755;DHT22;28407;51.830;5.684;2022-11-14T07:09:29;6.80;79.20
42755;DHT22;28407;51.830;5.684;2022-11-14T07:11:48;6.80;79.20
42755;DHT22;28407;51.830;5.684;2022-11-14T07:14:08;6.80;79.20
42755;DHT22;28407;51.830;5.684;2022-11-14T07:16:34;6.80;79.30
42755;DHT22;28407;51.830;5.684;2022-11-14T07:18:54;6.90;79.40
42755;DHT22;28407;51.830;5.684;2022-11-14T07:21:14;7.00;79.30
42755;DHT22;28407;51.830;5.684;2022-11-14T07:23:34;7.00;79.20
42755;DHT22;28407;51.830;5.684;2022-11-14T07:25:53;7.00;79.20
42755;DHT22;28407;51.830;5.684;2022-11-14T07:28:12;7.00;79.10
42755;DHT22;28407;51.830;5.684;2022-11-14T07:30:32;7.10;79.10
42755;DHT22;28407;51.830;5.684;2022-11-14T07:32:58;7.10;79.10
42755;DHT22;28407;51.830;5.684;2022-11-14T07:35:17;7.10;79.30
42755;DHT22;28407;51.830;5.684;2022-11-14T07:37:36;7.10;79.30
42755;DHT22;28407;51.830;5.684;2022-11-14T07:39:55;7.10;79.20
42755;DHT22;28407;51.830;5.684;2022-11-14T07:42:14;7.20;79.30
42755;DHT22;28407;51.830;5.684;2022-11-14T07:44:33;7.20;79.20
42755;DHT22;28407;51.830;5.684;2022-11-14T07:46:52;7.20;79.20
42755;DHT22;28407;51.830;5.684;2022-11-14T07:49:10;7.30;79.20
42755;DHT22;28407;51.830;5.684;2022-11-14T07:51:30;7.30;79.20
42755;DHT22;28407;51.830;5.684;2022-11-14T07:53:51;7.30;79.30
42755;DHT22;28407;51.830;5.684;2022-11-14T07:56:11;7.30;79.30
42755;DHT22;28407;51.830;5.684;2022-11-14T07:58:33;7.30;79.20
42755;DHT22;28407;51.830;5.684;2022-11-14T08:00:52;7.40;79.20
42755;DHT22;28407;51.830;5.684;2022-11-14T08:03:11;7.40;79.20
42755;DHT22;28407;51.830;5.684;2022-11-14T08:05:30;7.50;79.20
42755;DHT22;28407;51.830;5.684;2022-11-14T08:07:50;7.50;79.10
42755;DHT22;28407;51.830;5.684;2022-11-14T08:10:10;7.50;79.10
42755;DHT22;28407;51.830;5.684;2022-11-14T08:12:31;7.50;79.10
42755;DHT22;28407;51.830;5.684;2022-11-14T08:14:50;7.50;79.00
42755;DHT22;28407;51.830;5.684;2022-11-14T08:17:09;7.60;79.10
42755;DHT22;28407;51.830;5.684;2022-11-14T08:19:28;7.60;79.10
42755;DHT22;28407;51.830;5.684;2022-11-14T08:21:47;7.60;79.10
42755;DHT22;28407;51.830;5.684;2022-11-14T08:24:06;7.60;79.10
42755;DHT22;28407;51.830;5.684;2022-11-14T08:26:26;7.70;79.10
42755;DHT22;28407;51.830;5.684;2022-11-14T08:28:45;7.70;79.10
42755;DHT22;28407;51.830;5.684;2022-11-14T08:31:04;7.70;79.10
42755;DHT22;28407;51.830;5.684;2022-11-14T08:33:23;7.70;79.00
42755;DHT22;28407;51.830;5.684;2022-11-14T08:35:42;7.80;79.00
42755;DHT22;28407;51.830;5.684;2022-11-14T08:38:01;7.90;79.00
42755;DHT22;28407;51.830;5.684;2022-11-14T08:40:21;7.90;78.90
42755;DHT22;28407;51.830;5.684;2022-11-14T08:42:39;7.90;78.80
42755;DHT22;28407;51.830;5.684;2022-11-14T08:44:58;8.00;79.30
42755;DHT22;28407;51.830;5.684;2022-11-14T08:47:17;8.00;78.80
42755;DHT22;28407;51.830;5.684;2022-11-14T08:49:36;8.10;78.90
42755;DHT22;28407;51.830;5.684;2022-11-14T08:51:55;8.10;78.90
42755;DHT22;28407;51.830;5.684;2022-11-14T08:54:14;8.20;78.80
42755;DHT22;28407;51.830;5.684;2022-11-14T08:56:33;8.20;78.80
42755;DHT22;28407;51.830;5.684;2022-11-14T08:58:53;8.20;79.50
42755;DHT22;28407;51.830;5.684;2022-11-14T09:01:12;8.10;78.80
42755;DHT22;28407;51.830;5.684;2022-11-14T09:03:31;8.20;78.90
42755;DHT22;28407;51.830;5.684;2022-11-14T09:05:51;8.10;78.90
42755;DHT22;28407;51.830;5.684;2022-11-14T09:08:10;8.20;79.00
42755;DHT22;28407;51.830;5.684;2022-11-14T09:10:29;8.20;79.00
42755;DHT22;28407;51.830;5.684;2022-11-14T09:12:57;8.20;79.00
42755;DHT22;28407;51.830;5.684;2022-11-14T09:15:17;8.20;79.00
42755;DHT22;28407;51.830;5.684;2022-11-14T09:17:36;8.20;78.90
42755;DHT22;28407;51.830;5.684;2022-11-14T09:19:55;8.20;78.90
42755;DHT22;28407;51.830;5.684;2022-11-14T09:22:14;8.30;79.00
42755;DHT22;28407;51.830;5.684;2022-11-14T09:24:33;8.30;79.00
42755;DHT22;28407;51.830;5.684;2022-11-14T09:26:52;8.30;79.00
42755;DHT22;28407;51.830;5.684;2022-11-14T09:29:12;8.30;79.00
42755;DHT22;28407;51.830;5.684;2022-11-14T09:31:31;8.40;79.00
42755;DHT22;28407;51.830;5.684;2022-11-14T09:33:50;8.40;79.00
42755;DHT22;28407;51.830;5.684;2022-11-14T09:36:11;8.40;79.00
42755;DHT22;28407;51.830;5.684;2022-11-14T09:38:33;8.40;79.00
42755;DHT22;28407;51.830;5.684;2022-11-14T09:41:34;8.40;79.00
42755;DHT22;28407;51.830;5.684;2022-11-14T09:46:42;8.40;79.10
42755;DHT22;28407;51.830;5.684;2022-11-14T09:49:03;8.40;79.00
42755;DHT22;28407;51.830;5.684;2022-11-14T09:51:32;8.50;79.10
42755;DHT22;28407;51.830;5.684;2022-11-14T09:54:22;8.50;79.10
42755;DHT22;28407;51.830;5.684;2022-11-14T09:56:42;8.50;79.10
42755;DHT22;28407;51.830;5.684;2022-11-14T09:59:01;8.50;79.00
42755;DHT22;28407;51.830;5.684;2022-11-14T10:04:28;8.50;79.10
42755;DHT22;28407;51.830;5.684;2022-11-14T10:09:37;8.60;79.10
42755;DHT22;28407;51.830;5.684;2022-11-14T10:12:17;8.60;79.10
42755;DHT22;28407;51.830;5.684;2022-11-14T10:14:46;8.70;79.00
42755;DHT22;28407;51.830;5.684;2022-11-14T10:17:34;8.70;79.00
42755;DHT22;28407;51.830;5.684;2022-11-14T10:20:19;8.70;79.00
42755;DHT22;28407;51.830;5.684;2022-11-14T10:22:56;8.80;79.00
42755;DHT22;28407;51.830;5.684;2022-11-14T10:25:25;8.80;78.90
42755;DHT22;28407;51.830;5.684;2022-11-14T10:30:42;8.80;79.00
42755;DHT22;28407;51.830;5.684;2022-11-14T10:33:11;8.80;79.00
42755;DHT22;28407;51.830;5.684;2022-11-14T10:39:00;8.90;79.10
42755;DHT22;28407;51.830;5.684;2022-11-14T10:41:10;8.90;79.10
42755;DHT22;28407;51.830;5.684;2022-11-14T10:45:56;8.90;79.10
42755;DHT22;28407;51.830;5.684;2022-11-14T10:48:53;9.00;79.10
42755;DHT22;28407;51.830;5.684;2022-11-14T10:51:29;9.00;79.10
42755;DHT22;28407;51.830;5.684;2022-11-14T10:56:51;9.00;79.10
42755;DHT22;28407;51.830;5.684;2022-11-14T10:59:10;9.10;79.10
42755;DHT22;28407;51.830;5.684;2022-11-14T11:01:42;9.10;79.00
42755;DHT22;28407;51.830;5.684;2022-11-14T11:06:39;9.10;79.10
42755;DHT22;28407;51.830;5.684;2022-11-14T11:09:12;9.20;79.20
42755;DHT22;28407;51.830;5.684;2022-11-14T11:11:56;9.20;79.20
42755;DHT22;28407;51.830;5.684;2022-11-14T11:14:17;9.30;79.20
42755;DHT22;28407;51.830;5.684;2022-11-14T11:16:45;9.30;79.10
42755;DHT22;28407;51.830;5.684;2022-11-14T11:19:24;9.40;79.20
42755;DHT22;28407;51.830;5.684;2022-11-14T11:21:49;9.40;79.30
42755;DHT22;28407;51.830;5.684;2022-11-14T11:24:08;9.40;79.20
42755;DHT22;28407;51.830;5.684;2022-11-14T11:26:30;9.40;79.20
42755;DHT22;28407;51.830;5.684;2022-11-14T11:29:06;9.50;79.20
42755;DHT22;28407;51.830;5.684;2022-11-14T11:31:26;9.50;79.30
42755;DHT22;28407;51.830;5.684;2022-11-14T11:33:45;9.50;79.30
42755;DHT22;28407;51.830;5.684;2022-11-14T11:36:17;9.50;79.40
42755;DHT22;28407;51.830;5.684;2022-11-14T11:38:37;9.50;79.40
42755;DHT22;28407;51.830;5.684;2022-11-14T11:43:39;9.50;79.50
42755;DHT22;28407;51.830;5.684;2022-11-14T11:46:05;9.50;79.60
42755;DHT22;28407;51.830;5.684;2022-11-14T11:48:33;9.50;79.70
42755;DHT22;28407;51.830;5.684;2022-11-14T11:50:55;9.50;79.80
42755;DHT22;28407;51.830;5.684;2022-11-14T11:55:41;9.40;79.90
42755;DHT22;28407;51.830;5.684;2022-11-14T11:58:20;9.40;80.00
42755;DHT22;28407;51.830;5.684;2022-11-14T12:00:40;9.30;80.00
42755;DHT22;28407;51.830;5.684;2022-11-14T12:02:59;9.20;80.10
42755;DHT22;28407;51.830;5.684;2022-11-14T12:08:05;9.20;80.40
42755;DHT22;28407;51.830;5.684;2022-11-14T12:10:31;9.20;80.30
42755;DHT22;28407;51.830;5.684;2022-11-14T12:13:10;9.20;80.30
42755;DHT22;28407;51.830;5.684;2022-11-14T12:21:33;9.20;80.20
42755;DHT22;28407;51.830;5.684;2022-11-14T12:26:29;9.30;80.20
42755;DHT22;28407;51.830;5.684;2022-11-14T12:29:03;9.30;80.20
42755;DHT22;28407;51.830;5.684;2022-11-14T12:31:27;9.30;80.20
42755;DHT22;28407;51.830;5.684;2022-11-14T12:33:56;9.30;80.30
42755;DHT22;28407;51.830;5.684;2022-11-14T12:36:16;9.20;80.20
42755;DHT22;28407;51.830;5.684;2022-11-14T12:38:45;9.20;80.30
42755;DHT22;28407;51.830;5.684;2022-11-14T12:41:06;9.20;80.30
42755;DHT22;28407;51.830;5.684;2022-11-14T12:43:36;9.20;80.30
42755;DHT22;28407;51.830;5.684;2022-11-14T12:45:57;9.20;80.40
42755;DHT22;28407;51.830;5.684;2022-11-14T12:48:29;9.20;80.40
42755;DHT22;28407;51.830;5.684;2022-11-14T12:50:49;9.20;80.40
42755;DHT22;28407;51.830;5.684;2022-11-14T13:04:24;9.30;80.20
42755;DHT22;28407;51.830;5.684;2022-11-14T13:07:15;9.30;80.30
42755;DHT22;28407;51.830;5.684;2022-11-14T13:09:58;9.40;80.30
42755;DHT22;28407;51.830;5.684;2022-11-14T13:12:29;9.40;80.20
42755;DHT22;28407;51.830;5.684;2022-11-14T13:18:25;9.50;80.30
42755;DHT22;28407;51.830;5.684;2022-11-14T13:21:13;9.50;80.10
42755;DHT22;28407;51.830;5.684;2022-11-14T13:23:53;9.50;80.10
42755;DHT22;28407;51.830;5.684;2022-11-14T13:33:44;9.50;80.20
42755;DHT22;28407;51.830;5.684;2022-11-14T13:36:04;9.60;80.30
42755;DHT22;28407;51.830;5.684;2022-11-14T13:38:33;9.60;80.20
42755;DHT22;28407;51.830;5.684;2022-11-14T13:46:50;9.70;80.10
42755;DHT22;28407;51.830;5.684;2022-11-14T13:49:35;9.70;80.00
42755;DHT22;28407;51.830;5.684;2022-11-14T13:51:55;9.70;80.10
42755;DHT22;28407;51.830;5.684;2022-11-14T13:54:15;9.70;80.10
42755;DHT22;28407;51.830;5.684;2022-11-14T13:56:56;9.70;80.10
42755;DHT22;28407;51.830;5.684;2022-11-14T14:02:35;9.70;80.20
42755;DHT22;28407;51.830;5.684;2022-11-14T14:05:11;9.60;80.20
42755;DHT22;28407;51.830;5.684;2022-11-14T14:10:26;9.70;80.30
42755;DHT22;28407;51.830;5.684;2022-11-14T14:13:13;9.60;80.20
42755;DHT22;28407;51.830;5.684;2022-11-14T14:16:04;9.60;80.20
42755;DHT22;28407;51.830;5.684;2022-11-14T14:29:24;9.70;80.30
42755;DHT22;28407;51.830;5.684;2022-11-14T14:31:44;9.60;80.30
42755;DHT22;28407;51.830;5.684;2022-11-14T14:34:23;9.60;80.30
42755;DHT22;28407;51.830;5.684;2022-11-14T14:36:51;9.60;80.30
42755;DHT22;28407;51.830;5.684;2022-11-14T14:39:19;9.60;80.40
42755;DHT22;28407;51.830;5.684;2022-11-14T14:41:40;9.60;80.40
42755;DHT22;28407;51.830;5.684;2022-11-14T14:44:00;9.60;80.50
42755;DHT22;28407;51.830;5.684;2022-11-14T14:46:29;9.60;80.40
42755;DHT22;28407;51.830;5.684;2022-11-14T14:48:48;9.60;80.50
42755;DHT22;28407;51.830;5.684;2022-11-14T14:51:12;9.50;80.40
42755;DHT22;28407;51.830;5.684;2022-11-14T14:53:33;9.60;80.50
42755;DHT22;28407;51.830;5.684;2022-11-14T14:55:58;9.60;80.50
42755;DHT22;28407;51.830;5.684;2022-11-14T15:03:13;9.50;80.60
42755;DHT22;28407;51.830;5.684;2022-11-14T15:05:32;9.50;80.60
42755;DHT22;28407;51.830;5.684;2022-11-14T15:07:55;9.50;80.60
42755;DHT22;28407;51.830;5.684;2022-11-14T15:10:23;9.50;80.70
42755;DHT22;28407;51.830;5.684;2022-11-14T15:12:44;9.50;80.70
42755;DHT22;28407;51.830;5.684;2022-11-14T15:15:03;9.50;80.80
42755;DHT22;28407;51.830;5.684;2022-11-14T15:17:25;9.50;80.90
42755;DHT22;28407;51.830;5.684;2022-11-14T15:19:45;9.40;80.90
42755;DHT22;28407;51.830;5.684;2022-11-14T15:22:22;9.50;80.90
42755;DHT22;28407;51.830;5.684;2022-11-14T15:24:42;9.50;80.90
42755;DHT22;28407;51.830;5.684;2022-11-14T15:27:19;9.50;80.90
42755;DHT22;28407;51.830;5.684;2022-11-14T15:29:51;9.50;80.80
42755;DHT22;28407;51.830;5.684;2022-11-14T15:32:17;9.60;80.70
42755;DHT22;28407;51.830;5.684;2022-11-14T15:34:38;9.60;80.70
42755;DHT22;28407;51.830;5.684;2022-11-14T15:37:24;9.60;80.70
42755;DHT22;28407;51.830;5.684;2022-11-14T15:39:44;9.60;80.80
42755;DHT22;28407;51.830;5.684;2022-11-14T15:44:36;9.60;80.70
42755;DHT22;28407;51.830;5.684;2022-11-14T15:46:55;9.70;80.70
42755;DHT22;28407;51.830;5.684;2022-11-14T15:49:25;9.70;80.60
42755;DHT22;28407;51.830;5.684;2022-11-14T15:54:28;9.80;80.60
42755;DHT22;28407;51.830;5.684;2022-11-14T15:56:47;9.80;80.60
42755;DHT22;28407;51.830;5.684;2022-11-14T15:59:06;9.80;80.50
42755;DHT22;28407;51.830;5.684;2022-11-14T16:01:25;9.80;80.50
42755;DHT22;28407;51.830;5.684;2022-11-14T16:03:44;9.80;80.40
42755;DHT22;28407;51.830;5.684;2022-11-14T16:06:09;9.80;80.40
42755;DHT22;28407;51.830;5.684;2022-11-14T16:08:28;9.80;80.40
42755;DHT22;28407;51.830;5.684;2022-11-14T16:10:47;9.80;80.40
42755;DHT22;28407;51.830;5.684;2022-11-14T16:13:06;9.70;80.40
42755;DHT22;28407;51.830;5.684;2022-11-14T16:15:25;9.70;80.50
42755;DHT22;28407;51.830;5.684;2022-11-14T16:17:46;9.70;80.60
42755;DHT22;28407;51.830;5.684;2022-11-14T16:20:20;9.80;80.60
42755;DHT22;28407;51.830;5.684;2022-11-14T16:22:39;9.80;80.50
42755;DHT22;28407;51.830;5.684;2022-11-14T16:24:59;9.80;80.50
42755;DHT22;28407;51.830;5.684;2022-11-14T16:27:18;9.90;80.50
42755;DHT22;28407;51.830;5.684;2022-11-14T16:29:37;9.90;80.50
42755;DHT22;28407;51.830;5.684;2022-11-14T16:31:56;9.90;80.40
42755;DHT22;28407;51.830;5.684;2022-11-14T16:34:19;9.90;80.30
42755;DHT22;28407;51.830;5.684;2022-11-14T16:36:39;9.90;80.30
42755;DHT22;28407;51.830;5.684;2022-11-14T16:39:00;9.90;80.40
42755;DHT22;28407;51.830;5.684;2022-11-14T16:41:19;9.90;80.40
42755;DHT22;28407;51.830;5.684;2022-11-14T16:43:38;9.70;80.40
42755;DHT22;28407;51.830;5.684;2022-11-14T16:45:57;9.60;80.50
42755;DHT22;28407;51.830;5.684;2022-11-14T16:48:17;9.60;80.70